Time,TemperatureF,DewpointF,PressureIn,WindDirection,WindDirectionDegrees,WindSpeedMPH,WindSpeedGustMPH,Humidity,HourlyPrecipIn,Conditions,Clouds,dailyrainin,SolarRadiationWatts/m^2,SoftwareType,DateUTC
2015-04-21 00:01:00,45.5,44.7,29.73,ESE,120,4.6,4.6,97,0.01,RA,SKC,0.00,0.0,WeatherDisplay:10.37,2015-04-21 04:01:00,
2015-04-21 00:06:00,45.5,44.7,29.72,ESE,113,7.0,7.0,97,0.01,RA,SKC,0.00,0.0,WeatherDisplay:10.37,2015-04-21 04:06:00,
2015-04-21 00:11:00,45.5,44.7,29.72,North,11,7.0,7.0,97,0.01,CLR,SKC,0.00,0.0,WeatherDisplay:10.37,2015-04-21 04:11:00,
2015-04-21 00:16:00,45.5,44.7,29.72,East,94,3.5,3.5,97,0.01,CLR,SKC,0.00,0.0,WeatherDisplay:10.37,2015-04-21 04:16:00,
2015-04-21 00:21:00,45.5,44.7,29.72,NE,45,1.2,0.0,97,0.01,CLR,SKC,0.00,0.0,WeatherDisplay:10.37,2015-04-21 04:21:00,
2015-04-21 00:26:00,45.5,44.7,29.72,ENE,69,5.8,5.8,97,0.00,CLR,SKC,0.00,0.0,WeatherDisplay:10.37,2015-04-21 04:26:00,
2015-04-21 00:31:00,45.5,44.7,29.71,ENE,76,4.6,4.6,97,0.00,CLR,SKC,0.00,0.0,WeatherDisplay:10.37,2015-04-21 04:31:00,
2015-04-21 00:36:00,45.5,44.7,29.71,North,5,3.5,3.5,97,0.00,CLR,SKC,0.00,0.0,WeatherDisplay:10.37,2015-04-21 04:36:00,
2015-04-21 00:41:00,45.4,44.6,29.71,NE,44,4.6,4.6,97,0.00,CLR,SKC,0.00,0.0,WeatherDisplay:10.37,2015-04-21 04:41:00,
2015-04-21 00:46:00,45.4,44.6,29.71,NE,40,4.0,4.0,97,0.00,CLR,SKC,0.00,0.0,WeatherDisplay:10.37,2015-04-21 04:46:00,
2015-04-21 00:51:00,45.4,44.6,29.71,NE,38,0.0,0.0,97,0.01,RA,SKC,0.01,0.0,WeatherDisplay:10.37,2015-04-21 04:51:00,
2015-04-21 00:56:00,45.5,44.7,29.71,ENE,78,2.3,2.3,97,0.01,RA,SKC,0.01,0.0,WeatherDisplay:10.37,2015-04-21 04:56:00,
2015-04-21 01:01:00,45.4,44.6,29.70,ENE,59,3.5,3.5,97,0.01,CLR,SKC,0.01,0.0,WeatherDisplay:10.37,2015-04-21 05:01:00,
2015-04-21 01:06:00,45.4,44.6,29.70,NE,50,2.3,2.3,97,0.01,CLR,SKC,0.01,0.0,WeatherDisplay:10.37,2015-04-21 05:06:00,
2015-04-21 01:11:00,45.4,44.6,29.70,NE,53,1.0,0.0,97,0.01,CLR,SKC,0.01,0.0,WeatherDisplay:10.37,2015-04-21 05:11:00,
2015-04-21 01:16:00,45.4,44.6,29.70,NNE,15,3.5,3.5,97,0.01,CLR,SKC,0.01,0.0,WeatherDisplay:10.37,2015-04-21 05:16:00,
2015-04-21 01:21:00,45.4,44.6,29.69,ENE,61,2.0,2.0,97,0.01,CLR,SKC,0.01,0.0,WeatherDisplay:10.37,2015-04-21 05:21:00,
2015-04-21 01:26:00,45.4,44.6,29.69,NNE,29,0.0,0.0,97,0.01,CLR,SKC,0.01,0.0,WeatherDisplay:10.37,2015-04-21 05:26:00,
2015-04-21 01:31:00,45.3,44.5,29.69,NNE,32,0.0,0.0,97,0.01,CLR,SKC,0.01,0.0,WeatherDisplay:10.37,2015-04-21 05:31:00,
2015-04-21 01:36:00,45.3,44.5,29.68,ENE,58,0.0,0.0,97,0.02,RA,SKC,0.02,0.0,WeatherDisplay:10.37,2015-04-21 05:36:00,
2015-04-21 01:41:00,45.2,44.4,29.67,NE,56,3.5,3.5,97,0.03,RA,SKC,0.03,0.0,WeatherDisplay:10.37,2015-04-21 05:41:00,
2015-04-21 01:46:00,45.2,44.7,29.67,NNW,339,2.3,2.3,98,0.03,RA,SKC,0.03,0.0,WeatherDisplay:10.37,2015-04-21 05:46:00,
2015-04-21 01:51:00,45.2,44.7,29.67,NNW,339,1.0,0.0,98,0.02,,SKC,0.03,0.0,WeatherDisplay:10.37,2015-04-21 05:51:00,
2015-04-21 01:56:00,45.1,44.6,29.67,NE,39,0.0,0.0,98,0.02,CLR,SKC,0.03,0.0,WeatherDisplay:10.37,2015-04-21 05:56:00,
2015-04-21 02:01:00,45.1,44.6,29.66,NNE,28,0.0,0.0,98,0.02,CLR,SKC,0.03,0.0,WeatherDisplay:10.37,2015-04-21 06:01:00,
2015-04-21 02:06:00,45.0,44.5,29.66,NNE,28,0.0,0.0,98,0.02,CLR,SKC,0.03,0.0,WeatherDisplay:10.37,2015-04-21 06:06:00,
2015-04-21 02:11:00,45.0,44.5,29.66,NE,34,0.0,0.0,98,0.03,RA,SKC,0.04,0.0,WeatherDisplay:10.37,2015-04-21 06:11:00,
2015-04-21 02:16:00,45.1,44.3,29.65,NNE,32,1.2,0.0,97,0.04,RA,SKC,0.05,0.0,WeatherDisplay:10.37,2015-04-21 06:16:00,
2015-04-21 02:21:00,45.1,44.3,29.65,NE,34,0.0,0.0,97,0.05,RA,SKC,0.06,0.0,WeatherDisplay:10.37,2015-04-21 06:21:00,
2015-04-21 02:26:00,45.1,44.3,29.64,NE,34,0.0,0.0,97,0.05,RA,SKC,0.06,0.0,WeatherDisplay:10.37,2015-04-21 06:26:00,
2015-04-21 02:31:00,45.1,44.3,29.64,NE,38,0.0,0.0,97,0.05,CLR,SKC,0.06,0.0,WeatherDisplay:10.37,2015-04-21 06:31:00,
2015-04-21 02:36:00,45.1,44.3,29.63,NE,40,0.0,0.1,97,0.04,CLR,SKC,0.06,0.0,WeatherDisplay:10.37,2015-04-21 06:36:00,
2015-04-21 02:41:00,45.0,44.2,29.63,NE,38,2.3,2.3,97,0.03,CLR,SKC,0.06,0.0,WeatherDisplay:10.37,2015-04-21 06:41:00,
2015-04-21 02:46:00,45.0,44.2,29.63,NNE,30,0.0,0.0,97,0.03,CLR,SKC,0.06,0.0,WeatherDisplay:10.37,2015-04-21 06:46:00,
2015-04-21 02:51:00,45.0,44.2,29.63,NE,40,0.0,0.0,97,0.03,CLR,SKC,0.06,0.0,WeatherDisplay:10.37,2015-04-21 06:51:00,
2015-04-21 02:56:00,45.0,44.5,29.64,NE,40,0.0,0.0,98,0.03,CLR,SKC,0.06,0.0,WeatherDisplay:10.37,2015-04-21 06:56:00,
2015-04-21 03:01:00,44.9,44.4,29.63,NE,40,1.2,1.2,98,0.03,CLR,SKC,0.06,0.0,WeatherDisplay:10.37,2015-04-21 07:01:00,
2015-04-21 03:06:00,44.9,44.4,29.63,NE,34,0.0,0.0,98,0.03,CLR,SKC,0.06,0.0,WeatherDisplay:10.37,2015-04-21 07:06:00,
2015-04-21 03:11:00,44.9,44.4,29.64,NE,51,0.0,0.0,98,0.02,CLR,SKC,0.06,0.0,WeatherDisplay:10.37,2015-04-21 07:11:00,
2015-04-21 03:16:00,44.9,44.4,29.64,NE,48,1.2,0.0,98,0.01,CLR,SKC,0.06,0.0,WeatherDisplay:10.37,2015-04-21 07:16:00,
2015-04-21 03:21:00,44.9,44.4,29.63,NE,50,1.2,0.0,98,0.00,CLR,SKC,0.06,0.0,WeatherDisplay:10.37,2015-04-21 07:21:00,
2015-04-21 03:26:00,44.8,44.3,29.63,NNE,30,0.0,0.0,98,0.01,RA,SKC,0.07,0.0,WeatherDisplay:10.37,2015-04-21 07:26:00,
2015-04-21 03:31:00,44.8,44.3,29.63,ENE,71,2.3,2.3,98,0.03,RA,SKC,0.09,0.0,WeatherDisplay:10.37,2015-04-21 07:31:00,
2015-04-21 03:36:00,44.9,44.4,29.62,ENE,76,3.0,3.0,98,0.05,RA,SKC,0.11,0.0,WeatherDisplay:10.37,2015-04-21 07:36:00,
2015-04-21 03:41:00,45.0,44.5,29.64,South,178,0.0,0.0,98,0.10,RA,SKC,0.17,0.0,WeatherDisplay:10.37,2015-04-21 07:41:00,
2015-04-21 03:46:00,45.2,44.7,29.64,West,267,2.3,2.3,98,0.14,RA,SKC,0.20,0.0,WeatherDisplay:10.37,2015-04-21 07:46:00,
2015-04-21 03:51:00,45.3,44.8,29.60,North,11,0.0,0.0,98,0.17,RA,SKC,0.23,0.0,WeatherDisplay:10.37,2015-04-21 07:51:00,
2015-04-21 03:56:00,45.4,44.9,29.60,ENE,73,9.2,9.2,98,0.18,RA,SKC,0.25,0.0,WeatherDisplay:10.37,2015-04-21 07:56:00,
2015-04-21 04:01:00,45.5,45.0,29.59,NE,51,3.5,3.5,98,0.19,RA,SKC,0.25,0.0,WeatherDisplay:10.37,2015-04-21 08:01:00,
2015-04-21 04:06:00,45.6,45.1,29.58,NE,46,5.8,5.8,98,0.20,RA,SKC,0.26,0.0,WeatherDisplay:10.37,2015-04-21 08:06:00,
2015-04-21 04:11:00,45.7,45.2,29.58,ENE,62,5.8,5.8,98,0.20,RA,SKC,0.26,0.0,WeatherDisplay:10.37,2015-04-21 08:11:00,
2015-04-21 04:16:00,45.8,45.3,29.57,NNE,14,0.0,0.0,98,0.20,,SKC,0.26,0.0,WeatherDisplay:10.37,2015-04-21 08:16:00,
2015-04-21 04:21:00,45.8,45.3,29.60,West,271,6.0,6.0,98,0.20,CLR,SKC,0.26,0.0,WeatherDisplay:10.37,2015-04-21 08:21:00,
2015-04-21 04:26:00,45.8,45.3,29.61,WNW,288,2.3,2.3,98,0.20,RA,SKC,0.27,0.0,WeatherDisplay:10.37,2015-04-21 08:26:00,
2015-04-21 04:31:00,45.8,45.3,29.61,WSW,253,2.3,0.0,98,0.20,RA,SKC,0.29,0.0,WeatherDisplay:10.37,2015-04-21 08:31:00,
2015-04-21 04:36:00,45.8,45.3,29.60,West,266,0.0,0.0,98,0.20,RA,SKC,0.31,0.0,WeatherDisplay:10.37,2015-04-21 08:36:00,
2015-04-21 04:41:00,45.9,45.4,29.59,West,266,0.0,0.0,98,0.16,RA,SKC,0.32,0.0,WeatherDisplay:10.37,2015-04-21 08:41:00,
2015-04-21 04:46:00,45.8,45.3,29.59,West,266,0.0,0.0,98,0.12,RA,SKC,0.32,0.0,WeatherDisplay:10.37,2015-04-21 08:46:00,
2015-04-21 04:51:00,45.8,45.3,29.59,West,266,0.0,0.0,98,0.09,CLR,SKC,0.32,0.0,WeatherDisplay:10.37,2015-04-21 08:51:00,
2015-04-21 04:56:00,45.8,45.3,29.58,West,266,0.0,0.0,98,0.08,CLR,SKC,0.32,0.0,WeatherDisplay:10.37,2015-04-21 08:56:00,
2015-04-21 05:01:00,45.7,45.2,29.58,NNE,31,0.0,0.0,98,0.07,CLR,SKC,0.32,0.0,WeatherDisplay:10.37,2015-04-21 09:01:00,
2015-04-21 05:06:00,45.7,45.2,29.58,NNE,31,0.0,0.0,98,0.06,CLR,SKC,0.32,0.0,WeatherDisplay:10.37,2015-04-21 09:06:00,
2015-04-21 05:11:00,45.7,45.2,29.59,NNE,31,0.0,0.0,98,0.06,CLR,SKC,0.32,0.0,WeatherDisplay:10.37,2015-04-21 09:11:00,
2015-04-21 05:16:00,45.6,45.1,29.59,NNE,31,0.0,0.0,98,0.06,CLR,SKC,0.32,0.0,WeatherDisplay:10.37,2015-04-21 09:16:00,
2015-04-21 05:21:00,45.6,45.1,29.59,NNE,31,0.0,0.0,98,0.06,CLR,SKC,0.32,0.0,WeatherDisplay:10.37,2015-04-21 09:21:00,
2015-04-21 05:26:00,45.5,45.0,29.58,NNE,31,0.0,0.0,98,0.05,CLR,SKC,0.32,0.0,WeatherDisplay:10.37,2015-04-21 09:26:00,
2015-04-21 05:31:00,45.5,45.0,29.59,NNE,31,0.0,0.0,98,0.03,CLR,SKC,0.32,0.0,WeatherDisplay:10.37,2015-04-21 09:31:00,
2015-04-21 05:36:00,45.4,44.9,29.60,NNE,31,0.0,0.0,98,0.01,CLR,SKC,0.32,0.0,WeatherDisplay:10.37,2015-04-21 09:36:00,
2015-04-21 05:41:00,45.4,44.9,29.60,NNE,31,0.0,0.0,98,0.01,RA,SKC,0.33,0.0,WeatherDisplay:10.37,2015-04-21 09:41:00,
2015-04-21 05:46:00,45.4,44.9,29.60,NNE,31,0.0,0.0,98,0.01,RA,SKC,0.33,0.0,WeatherDisplay:10.37,2015-04-21 09:46:00,
2015-04-21 05:51:00,45.4,44.9,29.59,NNE,31,0.0,0.0,98,0.01,,SKC,0.33,0.0,WeatherDisplay:10.37,2015-04-21 09:51:00,
2015-04-21 05:56:00,45.3,44.8,29.59,NNE,31,0.0,0.0,98,0.02,RA,SKC,0.34,0.0,WeatherDisplay:10.37,2015-04-21 09:56:00,
2015-04-21 06:01:00,45.3,44.8,29.59,NNE,31,0.0,0.0,98,0.02,RA,SKC,0.34,0.0,WeatherDisplay:10.37,2015-04-21 10:01:00,
2015-04-21 06:06:00,45.3,44.8,29.59,NNW,334,0.0,0.0,98,0.03,RA,SKC,0.35,0.0,WeatherDisplay:10.37,2015-04-21 10:06:00,
2015-04-21 06:11:00,45.2,44.7,29.59,WNW,299,1.2,1.2,98,0.03,RA,SKC,0.35,0.0,WeatherDisplay:10.37,2015-04-21 10:11:00,
2015-04-21 06:16:00,45.2,44.7,29.59,WNW,295,0.0,0.0,98,0.03,,SKC,0.35,0.0,WeatherDisplay:10.37,2015-04-21 10:16:00,
2015-04-21 06:21:00,45.2,44.7,29.59,West,278,0.0,0.0,98,0.03,CLR,SKC,0.35,0.0,WeatherDisplay:10.37,2015-04-21 10:21:00,
2015-04-21 06:26:00,45.2,44.7,29.59,West,278,0.0,0.0,98,0.03,BKN,SKC,0.35,9.0,WeatherDisplay:10.37,2015-04-21 10:26:00,
2015-04-21 06:31:00,45.2,44.7,29.59,West,277,0.0,0.0,98,0.03,BKN,SKC,0.35,7.0,WeatherDisplay:10.37,2015-04-21 10:31:00,
2015-04-21 06:36:00,45.1,44.6,29.60,West,278,0.0,0.0,98,0.03,BKN,SKC,0.35,9.0,WeatherDisplay:10.37,2015-04-21 10:36:00,
2015-04-21 06:41:00,45.1,44.6,29.59,West,278,0.0,0.0,98,0.02,BKN,SKC,0.35,11.0,WeatherDisplay:10.37,2015-04-21 10:41:00,
2015-04-21 06:46:00,45.1,44.6,29.59,West,278,0.0,0.0,98,0.02,BKN,SKC,0.35,19.0,WeatherDisplay:10.37,2015-04-21 10:46:00,
2015-04-21 06:51:00,45.0,44.5,29.59,West,278,0.0,0.0,98,0.02,BKN,SKC,0.35,28.0,WeatherDisplay:10.37,2015-04-21 10:51:00,
2015-04-21 06:56:00,45.0,44.5,29.58,West,279,0.0,0.0,98,0.02,RA,SKC,0.36,25.0,WeatherDisplay:10.37,2015-04-21 10:56:00,
2015-04-21 07:01:00,45.0,44.5,29.58,West,279,0.0,0.0,98,0.02,RA,SKC,0.36,25.0,WeatherDisplay:10.37,2015-04-21 11:01:00,
2015-04-21 07:06:00,45.1,44.6,29.58,West,279,0.0,0.0,98,0.01,BKN,SKC,0.36,25.0,WeatherDisplay:10.37,2015-04-21 11:06:00,
2015-04-21 07:11:00,45.1,44.6,29.57,NNE,17,0.0,0.0,98,0.01,BKN,SKC,0.36,39.0,WeatherDisplay:10.37,2015-04-21 11:11:00,
2015-04-21 07:16:00,45.2,44.7,29.57,NNE,22,0.0,0.0,98,0.01,BKN,SKC,0.36,63.0,WeatherDisplay:10.37,2015-04-21 11:16:00,
2015-04-21 07:21:00,45.3,44.8,29.58,ENE,61,0.0,0.0,98,0.01,BKN,SKC,0.36,44.0,WeatherDisplay:10.37,2015-04-21 11:21:00,
2015-04-21 07:26:00,45.3,44.8,29.58,East,84,3.5,3.5,98,0.01,BKN,SKC,0.36,32.0,WeatherDisplay:10.37,2015-04-21 11:26:00,
2015-04-21 07:31:00,45.3,44.8,29.58,NNE,33,1.2,1.2,98,0.01,BKN,SKC,0.36,56.0,WeatherDisplay:10.37,2015-04-21 11:31:00,
2015-04-21 07:36:00,45.3,44.8,29.58,NNE,12,0.0,0.0,98,0.01,BKN,SKC,0.36,97.0,WeatherDisplay:10.37,2015-04-21 11:36:00,
2015-04-21 07:41:00,45.4,44.9,29.58,North,5,2.3,2.3,98,0.01,BKN,SKC,0.36,76.0,WeatherDisplay:10.37,2015-04-21 11:41:00,
2015-04-21 07:46:00,45.5,45.0,29.58,NNE,28,2.3,2.3,98,0.01,BKN,SKC,0.36,30.0,WeatherDisplay:10.37,2015-04-21 11:46:00,
2015-04-21 07:51:00,45.5,45.0,29.58,NNE,18,0.0,0.0,98,0.01,BKN,SKC,0.36,77.0,WeatherDisplay:10.37,2015-04-21 11:51:00,
2015-04-21 07:56:00,45.6,45.1,29.57,NNE,30,0.0,0.0,98,0.00,BKN,SKC,0.36,102.0,WeatherDisplay:10.37,2015-04-21 11:56:00,
2015-04-21 08:01:00,45.6,45.1,29.57,NNE,26,0.0,0.0,98,0.00,BKN,SKC,0.36,97.0,WeatherDisplay:10.37,2015-04-21 12:01:00,
2015-04-21 08:06:00,45.7,45.2,29.57,NNE,27,0.0,0.0,98,0.00,BKN,SKC,0.36,100.0,WeatherDisplay:10.37,2015-04-21 12:06:00,
2015-04-21 08:11:00,45.8,45.3,29.57,NNE,27,0.0,0.0,98,0.00,BKN,SKC,0.36,113.0,WeatherDisplay:10.37,2015-04-21 12:11:00,
2015-04-21 08:16:00,45.8,45.3,29.58,NNE,27,0.0,0.0,98,0.00,BKN,SKC,0.36,116.0,WeatherDisplay:10.37,2015-04-21 12:16:00,
2015-04-21 08:21:00,46.1,45.6,29.58,NNE,24,0.0,0.0,98,0.00,BKN,SKC,0.36,100.0,WeatherDisplay:10.37,2015-04-21 12:21:00,
2015-04-21 08:26:00,46.2,45.7,29.58,WNW,294,1.0,0.0,98,0.00,BKN,SKC,0.36,98.0,WeatherDisplay:10.37,2015-04-21 12:26:00,
2015-04-21 08:31:00,46.3,45.8,29.58,WNW,294,0.0,0.0,98,0.00,BKN,SKC,0.36,77.0,WeatherDisplay:10.37,2015-04-21 12:31:00,
2015-04-21 08:36:00,46.4,45.9,29.58,WNW,294,0.0,0.0,98,0.00,BKN,SKC,0.36,121.0,WeatherDisplay:10.37,2015-04-21 12:36:00,
2015-04-21 08:41:00,46.5,46.0,29.58,WNW,294,0.0,0.0,98,0.00,BKN,SKC,0.36,134.0,WeatherDisplay:10.37,2015-04-21 12:41:00,
2015-04-21 08:46:00,46.7,46.2,29.58,WNW,290,0.0,0.0,98,0.00,BKN,SKC,0.36,158.0,WeatherDisplay:10.37,2015-04-21 12:46:00,
2015-04-21 08:51:00,46.9,46.6,29.58,West,269,0.0,0.0,99,0.00,BKN,SKC,0.36,153.0,WeatherDisplay:10.37,2015-04-21 12:51:00,
2015-04-21 08:56:00,47.1,46.6,29.58,West,267,1.2,1.2,98,0.00,BKN,SKC,0.36,120.0,WeatherDisplay:10.37,2015-04-21 12:56:00,
2015-04-21 09:01:00,47.2,46.9,29.58,West,267,0.0,0.0,99,0.00,BKN,SKC,0.36,137.0,WeatherDisplay:10.37,2015-04-21 13:01:00,
2015-04-21 09:06:00,47.4,47.1,29.58,WSW,251,3.5,3.5,99,0.00,BKN,SKC,0.36,153.0,WeatherDisplay:10.37,2015-04-21 13:06:00,
2015-04-21 09:11:00,47.5,47.0,29.58,West,269,0.0,0.0,98,0.00,BKN,SKC,0.36,132.0,WeatherDisplay:10.37,2015-04-21 13:11:00,
2015-04-21 09:16:00,47.5,47.0,29.58,WNW,283,5.8,5.8,98,0.00,BKN,SKC,0.36,188.0,WeatherDisplay:10.37,2015-04-21 13:16:00,
2015-04-21 09:21:00,47.7,47.2,29.59,WNW,284,0.0,0.0,98,0.00,BKN,SKC,0.36,174.0,WeatherDisplay:10.37,2015-04-21 13:21:00,
2015-04-21 09:26:00,47.9,47.4,29.60,SW,235,2.3,0.0,98,0.00,BKN,SKC,0.36,218.0,WeatherDisplay:10.37,2015-04-21 13:26:00,
2015-04-21 09:31:00,47.9,47.6,29.60,WSW,240,1.2,1.2,99,0.00,BKN,SKC,0.36,179.0,WeatherDisplay:10.37,2015-04-21 13:31:00,
2015-04-21 09:36:00,48.1,47.6,29.59,WSW,246,0.0,0.0,98,0.00,BKN,SKC,0.36,227.0,WeatherDisplay:10.37,2015-04-21 13:36:00,
2015-04-21 09:41:00,48.4,47.9,29.59,West,259,1.2,0.0,98,0.00,BKN,SKC,0.36,190.0,WeatherDisplay:10.37,2015-04-21 13:41:00,
2015-04-21 09:46:00,48.5,48.2,29.59,West,259,0.0,0.0,99,0.00,BKN,SKC,0.36,202.0,WeatherDisplay:10.37,2015-04-21 13:46:00,
2015-04-21 09:51:00,48.6,48.3,29.59,WNW,283,5.8,5.8,99,0.00,BKN,SKC,0.36,206.0,WeatherDisplay:10.37,2015-04-21 13:51:00,
2015-04-21 09:56:00,48.9,48.4,29.59,WNW,294,0.0,0.0,98,0.00,BKN,SKC,0.36,339.0,WeatherDisplay:10.37,2015-04-21 13:56:00,
2015-04-21 10:01:00,49.2,48.9,29.59,WNW,298,0.0,0.0,99,0.00,BKN,SKC,0.36,193.0,WeatherDisplay:10.37,2015-04-21 14:01:00,
2015-04-21 10:06:00,49.2,48.9,29.59,WSW,239,1.2,1.2,99,0.00,SCT,SKC,0.36,506.0,WeatherDisplay:10.37,2015-04-21 14:06:00,
2015-04-21 10:11:00,49.7,49.4,29.59,West,269,3.5,3.5,99,0.00,BKN,SKC,0.36,297.0,WeatherDisplay:10.37,2015-04-21 14:11:00,
2015-04-21 10:16:00,49.8,49.5,29.60,SW,232,3.5,3.5,99,0.00,BKN,SKC,0.36,234.0,WeatherDisplay:10.37,2015-04-21 14:16:00,
2015-04-21 10:21:00,50.0,49.5,29.60,WNW,300,0.0,0.0,98,0.00,BKN,SKC,0.36,216.0,WeatherDisplay:10.37,2015-04-21 14:21:00,
2015-04-21 10:26:00,49.9,49.4,29.61,SW,215,3.5,3.5,98,0.00,BKN,SKC,0.36,181.0,WeatherDisplay:10.37,2015-04-21 14:26:00,
2015-04-21 10:31:00,49.9,49.4,29.61,West,275,0.0,0.0,98,0.00,BKN,SKC,0.36,253.0,WeatherDisplay:10.37,2015-04-21 14:31:00,
2015-04-21 10:36:00,50.0,49.5,29.61,West,268,2.3,2.3,98,0.00,BKN,SKC,0.36,281.0,WeatherDisplay:10.37,2015-04-21 14:36:00,
2015-04-21 10:41:00,50.0,49.5,29.61,SW,236,5.0,5.0,98,0.00,BKN,SKC,0.36,165.0,WeatherDisplay:10.37,2015-04-21 14:41:00,
2015-04-21 10:46:00,49.9,49.4,29.61,WSW,240,8.1,8.1,98,0.00,BKN,SKC,0.36,139.0,WeatherDisplay:10.37,2015-04-21 14:46:00,
2015-04-21 10:51:00,49.9,49.4,29.62,WSW,242,6.9,6.9,98,0.00,BKN,SKC,0.36,141.0,WeatherDisplay:10.37,2015-04-21 14:51:00,
2015-04-21 10:56:00,49.8,49.3,29.62,WSW,246,7.0,7.0,98,0.00,BKN,SKC,0.36,125.0,WeatherDisplay:10.37,2015-04-21 14:56:00,
2015-04-21 11:01:00,49.7,49.2,29.63,WSW,242,4.6,4.6,98,0.00,BKN,SKC,0.36,81.0,WeatherDisplay:10.37,2015-04-21 15:01:00,
2015-04-21 11:06:00,49.5,49.0,29.63,WSW,245,9.2,9.2,98,0.00,BKN,SKC,0.36,74.0,WeatherDisplay:10.37,2015-04-21 15:06:00,
2015-04-21 11:11:00,49.2,48.7,29.63,WSW,254,4.6,4.6,98,0.00,BKN,SKC,0.36,67.0,WeatherDisplay:10.37,2015-04-21 15:11:00,
2015-04-21 11:16:00,49.1,48.6,29.63,SSW,210,4.0,4.0,98,0.00,BKN,SKC,0.36,54.0,WeatherDisplay:10.37,2015-04-21 15:16:00,
2015-04-21 11:21:00,49.0,48.5,29.63,SW,225,6.9,6.9,98,0.00,BKN,SKC,0.36,65.0,WeatherDisplay:10.37,2015-04-21 15:21:00,
2015-04-21 11:26:00,49.0,48.5,29.63,SSW,209,3.5,3.5,98,0.00,BKN,SKC,0.36,109.0,WeatherDisplay:10.37,2015-04-21 15:26:00,
2015-04-21 11:31:00,49.0,48.5,29.64,West,267,3.5,3.5,98,0.00,BKN,SKC,0.36,90.0,WeatherDisplay:10.37,2015-04-21 15:31:00,
2015-04-21 11:36:00,49.1,48.6,29.63,WNW,291,3.5,3.5,98,0.00,BKN,SKC,0.36,149.0,WeatherDisplay:10.37,2015-04-21 15:36:00,
2015-04-21 11:41:00,49.2,48.7,29.63,West,277,3.5,3.5,98,0.00,BKN,SKC,0.36,200.0,WeatherDisplay:10.37,2015-04-21 15:41:00,
2015-04-21 11:46:00,49.2,48.7,29.63,West,276,0.0,0.0,98,0.00,BKN,SKC,0.36,162.0,WeatherDisplay:10.37,2015-04-21 15:46:00,
2015-04-21 11:51:00,49.4,48.9,29.63,NNE,27,6.0,6.0,98,0.00,BKN,SKC,0.36,237.0,WeatherDisplay:10.37,2015-04-21 15:51:00,
2015-04-21 11:56:00,49.6,49.1,29.63,NW,321,1.2,1.2,98,0.00,BKN,SKC,0.36,221.0,WeatherDisplay:10.37,2015-04-21 15:56:00,
2015-04-21 12:01:00,49.8,49.3,29.63,SW,232,9.2,9.2,98,0.00,BKN,SKC,0.36,325.0,WeatherDisplay:10.37,2015-04-21 16:01:00,
2015-04-21 12:06:00,49.8,49.0,29.63,West,265,11.0,11.0,97,0.00,BKN,SKC,0.36,376.0,WeatherDisplay:10.37,2015-04-21 16:06:00,
2015-04-21 12:11:00,49.7,48.9,29.64,NE,51,4.6,4.6,97,0.00,BKN,SKC,0.36,272.0,WeatherDisplay:10.37,2015-04-21 16:11:00,
2015-04-21 12:16:00,49.8,48.7,29.63,WNW,287,13.8,13.8,96,0.00,BKN,SKC,0.36,251.0,WeatherDisplay:10.37,2015-04-21 16:16:00,
2015-04-21 12:21:00,49.9,48.5,29.63,NNW,327,16.1,16.1,95,0.00,BKN,SKC,0.36,257.0,WeatherDisplay:10.37,2015-04-21 16:21:00,
2015-04-21 12:26:00,50.0,47.8,29.63,NW,324,3.5,3.5,92,0.00,BKN,SKC,0.36,197.0,WeatherDisplay:10.37,2015-04-21 16:26:00,
2015-04-21 12:31:00,50.0,47.2,29.63,NNW,340,3.5,3.5,90,0.00,BKN,SKC,0.36,213.0,WeatherDisplay:10.37,2015-04-21 16:31:00,
2015-04-21 12:36:00,50.2,47.1,29.64,WNW,300,6.9,6.9,89,0.00,BKN,SKC,0.36,301.0,WeatherDisplay:10.37,2015-04-21 16:36:00,
2015-04-21 12:41:00,50.4,47.0,29.64,WSW,257,9.2,9.2,88,0.00,BKN,SKC,0.36,285.0,WeatherDisplay:10.37,2015-04-21 16:41:00,
2015-04-21 12:46:00,51.1,47.4,29.63,WSW,242,1.2,1.2,87,0.00,BKN,SKC,0.36,378.0,WeatherDisplay:10.37,2015-04-21 16:46:00,
2015-04-21 12:51:00,51.9,47.5,29.63,WNW,284,6.9,6.9,85,0.00,BKN,SKC,0.36,411.0,WeatherDisplay:10.37,2015-04-21 16:51:00,
2015-04-21 12:56:00,52.4,47.1,29.63,NW,304,10.0,10.0,82,0.00,BKN,SKC,0.36,374.0,WeatherDisplay:10.37,2015-04-21 16:56:00,
2015-04-21 13:01:00,52.9,47.2,29.63,West,261,7.0,7.0,81,0.00,BKN,SKC,0.36,396.0,WeatherDisplay:10.37,2015-04-21 17:01:00,
2015-04-21 13:06:00,53.3,46.3,29.63,NW,313,11.5,11.5,77,0.00,BKN,SKC,0.36,388.0,WeatherDisplay:10.37,2015-04-21 17:06:00,
2015-04-21 13:11:00,53.6,45.9,29.64,West,271,1.2,0.0,75,0.00,BKN,SKC,0.36,330.0,WeatherDisplay:10.37,2015-04-21 17:11:00,
2015-04-21 13:16:00,53.8,45.3,29.64,West,267,9.2,9.2,73,0.00,BKN,SKC,0.36,454.0,WeatherDisplay:10.37,2015-04-21 17:16:00,
2015-04-21 13:17:00,53.9,45.8,29.64,SSW,208,11.5,11.5,74,0.00,SCT,SKC,0.36,524.0,WeatherDisplay:10.37,2015-04-21 17:17:00,
2015-04-21 13:22:00,54.2,45.0,29.64,West,280,11.5,11.5,71,0.00,BKN,SKC,0.36,369.0,WeatherDisplay:10.37,2015-04-21 17:22:00,
2015-04-21 13:27:00,54.3,44.7,29.64,NNW,332,13.8,13.8,70,0.00,BKN,SKC,0.36,295.0,WeatherDisplay:10.37,2015-04-21 17:27:00,
2015-04-21 13:32:00,54.4,44.4,29.64,West,264,15.0,15.0,69,0.00,BKN,SKC,0.36,274.0,WeatherDisplay:10.37,2015-04-21 17:32:00,
2015-04-21 13:37:00,54.4,44.4,29.64,WSW,255,11.0,11.0,69,0.00,BKN,SKC,0.36,272.0,WeatherDisplay:10.37,2015-04-21 17:37:00,
2015-04-21 13:42:00,54.4,44.1,29.64,NNW,346,12.7,12.7,68,0.00,BKN,SKC,0.36,316.0,WeatherDisplay:10.37,2015-04-21 17:42:00,
2015-04-21 13:47:00,54.4,44.4,29.64,NW,306,8.0,8.0,69,0.00,BKN,SKC,0.36,417.0,WeatherDisplay:10.37,2015-04-21 17:47:00,
2015-04-21 13:52:00,54.5,43.4,29.64,WSW,246,11.5,11.5,66,0.00,SCT,SKC,0.36,536.0,WeatherDisplay:10.37,2015-04-21 17:52:00,
2015-04-21 13:57:00,54.9,43.4,29.64,North,5,18.4,18.4,65,0.00,SCT,SKC,0.36,524.0,WeatherDisplay:10.37,2015-04-21 17:57:00,
2015-04-21 14:02:00,55.2,42.8,29.64,WNW,292,16.1,16.1,63,0.00,CLR,SKC,0.36,960.0,WeatherDisplay:10.37,2015-04-21 18:02:00,
2015-04-21 14:07:00,55.8,43.8,29.64,NNE,13,15.0,15.0,64,0.00,SCT,SKC,0.36,564.0,WeatherDisplay:10.37,2015-04-21 18:07:00,
2015-04-21 14:12:00,56.8,43.9,29.64,WNW,282,9.2,9.2,62,0.00,BKN,SKC,0.36,378.0,WeatherDisplay:10.37,2015-04-21 18:12:00,
2015-04-21 14:17:00,57.4,44.1,29.64,NNW,329,10.4,10.4,61,0.00,CLR,SKC,0.36,844.0,WeatherDisplay:10.37,2015-04-21 18:17:00,
2015-04-21 14:22:00,57.9,44.1,29.64,WNW,285,11.5,11.5,60,0.00,CLR,SKC,0.36,831.0,WeatherDisplay:10.37,2015-04-21 18:22:00,
2015-04-21 14:27:00,58.2,42.6,29.64,WNW,292,12.0,12.0,56,0.00,CLR,SKC,0.36,823.0,WeatherDisplay:10.37,2015-04-21 18:27:00,
2015-04-21 14:32:00,58.0,41.9,29.64,North,349,11.5,11.5,55,0.00,CLR,SKC,0.36,812.0,WeatherDisplay:10.37,2015-04-21 18:32:00,
2015-04-21 14:37:00,57.8,40.8,29.64,WSW,248,16.1,16.1,53,0.00,CLR,SKC,0.36,833.0,WeatherDisplay:10.37,2015-04-21 18:37:00,
2015-04-21 14:42:00,57.8,41.7,29.64,SW,232,10.4,10.4,55,0.00,BKN,SKC,0.36,178.0,WeatherDisplay:10.37,2015-04-21 18:42:00,
2015-04-21 14:47:00,57.7,41.6,29.64,NW,308,10.4,10.4,55,0.00,SCT,SKC,0.36,584.0,WeatherDisplay:10.37,2015-04-21 18:47:00,
2015-04-21 14:52:00,57.4,42.3,29.64,WNW,282,6.9,6.9,57,0.00,CLR,SKC,0.36,895.0,WeatherDisplay:10.37,2015-04-21 18:52:00,
2015-04-21 14:57:00,57.7,42.6,29.64,WNW,284,10.4,10.4,57,0.00,CLR,SKC,0.36,998.0,WeatherDisplay:10.37,2015-04-21 18:57:00,
2015-04-21 15:02:00,58.1,41.5,29.64,NNW,333,6.9,6.9,54,0.00,CLR,SKC,0.36,998.0,WeatherDisplay:10.37,2015-04-21 19:02:00,
2015-04-21 15:07:00,58.7,41.1,29.64,NW,310,12.7,12.7,52,0.00,CLR,SKC,0.36,810.0,WeatherDisplay:10.37,2015-04-21 19:07:00,
2015-04-21 15:12:00,58.7,41.1,29.64,SSW,202,1.2,0.0,52,0.00,BKN,SKC,0.36,216.0,WeatherDisplay:10.37,2015-04-21 19:12:00,
2015-04-21 15:17:00,58.3,40.2,29.64,West,278,3.5,3.5,51,0.00,BKN,SKC,0.36,297.0,WeatherDisplay:10.37,2015-04-21 19:17:00,
2015-04-21 15:22:00,57.9,40.9,29.64,NW,321,5.0,5.0,53,0.00,BKN,SKC,0.36,221.0,WeatherDisplay:10.37,2015-04-21 19:22:00,
2015-04-21 15:27:00,57.4,40.9,29.64,NW,319,7.0,7.0,54,0.00,BKN,SKC,0.36,179.0,WeatherDisplay:10.37,2015-04-21 19:27:00,
2015-04-21 15:32:00,56.8,40.3,29.64,West,280,10.4,10.4,54,0.00,BKN,SKC,0.36,220.0,WeatherDisplay:10.37,2015-04-21 19:32:00,
2015-04-21 15:37:00,56.4,40.0,29.63,West,264,3.5,3.5,54,0.00,BKN,SKC,0.36,234.0,WeatherDisplay:10.37,2015-04-21 19:37:00,
2015-04-21 15:42:00,56.3,39.9,29.63,NW,307,5.8,5.8,54,0.00,BKN,SKC,0.36,237.0,WeatherDisplay:10.37,2015-04-21 19:42:00,
2015-04-21 15:47:00,56.6,41.1,29.63,West,274,9.2,9.2,56,0.00,CLR,SKC,0.36,656.0,WeatherDisplay:10.37,2015-04-21 19:47:00,
2015-04-21 15:52:00,57.1,41.5,29.63,West,262,8.1,8.1,56,0.00,CLR,SKC,0.36,710.0,WeatherDisplay:10.37,2015-04-21 19:52:00,
2015-04-21 15:57:00,57.2,40.2,29.63,NW,324,9.2,9.2,53,0.00,BKN,SKC,0.36,156.0,WeatherDisplay:10.37,2015-04-21 19:57:00,
2015-04-21 16:02:00,57.2,41.2,29.63,NW,320,6.9,6.9,55,0.00,BKN,SKC,0.36,213.0,WeatherDisplay:10.37,2015-04-21 20:02:00,
2015-04-21 16:07:00,57.4,40.4,29.63,WSW,238,10.4,10.4,53,0.00,CLR,SKC,0.36,643.0,WeatherDisplay:10.37,2015-04-21 20:07:00,
2015-04-21 16:12:00,57.9,38.8,29.63,WSW,245,11.5,11.5,49,0.00,CLR,SKC,0.36,589.0,WeatherDisplay:10.37,2015-04-21 20:12:00,
2015-04-21 16:17:00,58.5,38.3,29.63,SW,235,11.5,11.5,47,0.00,CLR,SKC,0.36,555.0,WeatherDisplay:10.37,2015-04-21 20:17:00,
2015-04-21 16:21:00,58.7,37.4,29.63,West,271,12.7,12.7,45,0.00,CLR,SKC,0.36,504.0,WeatherDisplay:10.37,2015-04-21 20:21:00,
2015-04-21 16:24:00,58.7,38.0,29.63,North,360,11.5,11.5,46,0.00,CLR,SKC,0.36,489.0,WeatherDisplay:10.37,2015-04-21 20:24:00,
2015-04-21 16:25:00,58.7,38.0,29.63,WNW,297,11.5,11.5,46,0.00,FEW,SKC,0.36,487.0,WeatherDisplay:10.37,2015-04-21 20:25:00,
2015-04-21 16:26:00,58.7,38.5,29.63,NW,310,13.8,13.8,47,0.00,CLR,SKC,0.36,485.0,WeatherDisplay:10.37,2015-04-21 20:26:00,
2015-04-21 16:27:00,58.8,38.6,29.63,NW,321,8.1,8.1,47,0.00,CLR,SKC,0.36,475.0,WeatherDisplay:10.37,2015-04-21 20:27:00,
2015-04-21 16:32:00,58.7,37.4,29.64,WSW,242,1.2,3.2,45,0.00,FEW,SKC,0.36,406.0,WeatherDisplay:10.37,2015-04-21 20:32:00,
2015-04-21 16:37:00,58.3,38.1,29.64,WNW,283,11.5,11.5,47,0.00,BKN,SKC,0.36,120.0,WeatherDisplay:10.37,2015-04-21 20:37:00,
2015-04-21 16:42:00,57.8,37.1,29.64,WSW,242,9.2,9.2,46,0.00,BKN,SKC,0.36,176.0,WeatherDisplay:10.37,2015-04-21 20:42:00,
2015-04-21 16:47:00,57.5,37.9,29.64,SW,228,4.6,5.4,48,0.00,BKN,SKC,0.36,174.0,WeatherDisplay:10.37,2015-04-21 20:47:00,
2015-04-21 16:52:00,57.3,37.8,29.65,West,259,8.1,8.1,48,0.00,BKN,SKC,0.36,183.0,WeatherDisplay:10.37,2015-04-21 20:52:00,
2015-04-21 16:57:00,57.4,38.4,29.65,SW,217,1.2,1.2,49,0.00,BKN,SKC,0.36,183.0,WeatherDisplay:10.37,2015-04-21 20:57:00,
2015-04-21 17:02:00,57.4,38.4,29.65,NNW,329,8.1,8.1,49,0.00,BKN,SKC,0.36,199.0,WeatherDisplay:10.37,2015-04-21 21:02:00,
2015-04-21 17:07:00,57.4,38.4,29.65,West,279,2.3,3.7,49,0.00,BKN,SKC,0.36,132.0,WeatherDisplay:10.37,2015-04-21 21:07:00,
2015-04-21 17:12:00,57.5,38.5,29.65,NNW,338,4.6,4.6,49,0.00,BKN,SKC,0.36,123.0,WeatherDisplay:10.37,2015-04-21 21:12:00,
2015-04-21 17:17:00,57.4,37.9,29.65,NW,317,11.5,11.5,48,0.00,BKN,SKC,0.36,90.0,WeatherDisplay:10.37,2015-04-21 21:17:00,
2015-04-21 17:22:00,57.1,37.6,29.66,NNW,331,15.0,15.0,48,0.00,BKN,SKC,0.36,135.0,WeatherDisplay:10.37,2015-04-21 21:22:00,
2015-04-21 17:32:00,56.7,37.7,29.66,WNW,290,10.4,10.4,49,0.00,BKN,SKC,0.36,93.0,WeatherDisplay:10.37,2015-04-21 21:32:00,
2015-04-21 17:37:00,56.6,37.6,29.66,NW,313,3.5,3.5,49,0.00,BKN,SKC,0.36,90.0,WeatherDisplay:10.37,2015-04-21 21:37:00,
2015-04-21 17:42:00,56.5,37.6,29.66,NW,315,8.1,8.1,49,0.00,BKN,SKC,0.36,120.0,WeatherDisplay:10.37,2015-04-21 21:42:00,
2015-04-21 17:47:00,56.4,37.5,29.67,West,275,3.5,3.5,49,0.00,BKN,SKC,0.36,83.0,WeatherDisplay:10.37,2015-04-21 21:47:00,
2015-04-21 17:52:00,56.3,37.9,29.67,NNW,347,6.9,6.9,50,0.00,SCT,SKC,0.36,130.0,WeatherDisplay:10.37,2015-04-21 21:52:00,
2015-04-21 17:57:00,56.1,38.7,29.67,North,355,6.0,6.0,52,0.00,BKN,SKC,0.36,98.0,WeatherDisplay:10.37,2015-04-21 21:57:00,
2015-04-21 18:02:00,56.0,37.6,29.67,NW,309,3.5,3.5,50,0.00,BKN,SKC,0.36,69.0,WeatherDisplay:10.37,2015-04-21 22:02:00,
2015-04-21 18:07:00,55.7,37.8,29.67,NW,319,8.1,8.1,51,0.00,BKN,SKC,0.36,54.0,WeatherDisplay:10.37,2015-04-21 22:07:00,
2015-04-21 18:12:00,55.4,37.1,29.68,NW,325,13.8,13.8,50,0.00,BKN,SKC,0.36,49.0,WeatherDisplay:10.37,2015-04-21 22:12:00,
2015-04-21 18:17:00,55.2,37.9,29.68,SW,236,2.0,2.0,52,0.00,BKN,SKC,0.36,46.0,WeatherDisplay:10.37,2015-04-21 22:17:00,
2015-04-21 18:22:00,55.0,37.2,29.68,NNW,342,9.2,9.2,51,0.00,BKN,SKC,0.36,42.0,WeatherDisplay:10.37,2015-04-21 22:22:00,
2015-04-21 18:27:00,54.8,38.0,29.68,NNW,344,3.5,3.5,53,0.00,BKN,SKC,0.36,40.0,WeatherDisplay:10.37,2015-04-21 22:27:00,
2015-04-21 18:32:00,54.5,37.7,29.68,NW,317,6.9,6.9,53,0.00,BKN,SKC,0.36,37.0,WeatherDisplay:10.37,2015-04-21 22:32:00,
2015-04-21 18:37:00,54.4,38.1,29.68,WNW,292,0.0,0.0,54,0.00,BKN,SKC,0.36,35.0,WeatherDisplay:10.37,2015-04-21 22:37:00,
2015-04-21 18:42:00,54.2,37.4,29.68,NNW,343,3.5,3.5,53,0.00,BKN,SKC,0.36,32.0,WeatherDisplay:10.37,2015-04-21 22:42:00,
2015-04-21 18:47:00,53.9,36.2,29.69,WNW,288,5.8,5.8,51,0.00,BKN,SKC,0.36,30.0,WeatherDisplay:10.37,2015-04-21 22:47:00,
2015-04-21 18:52:00,53.6,35.9,29.69,NW,319,1.0,1.2,51,0.00,BKN,SKC,0.36,26.0,WeatherDisplay:10.37,2015-04-21 22:52:00,
2015-04-21 18:57:00,53.4,36.2,29.69,NW,324,0.0,0.0,52,0.00,BKN,SKC,0.36,23.0,WeatherDisplay:10.37,2015-04-21 22:57:00,
2015-04-21 19:02:00,53.3,36.1,29.70,WNW,289,0.0,0.0,52,0.00,BKN,SKC,0.36,21.0,WeatherDisplay:10.37,2015-04-21 23:02:00,
2015-04-21 19:07:00,53.1,36.4,29.70,WNW,282,2.3,2.3,53,0.00,BKN,SKC,0.36,18.0,WeatherDisplay:10.37,2015-04-21 23:07:00,
2015-04-21 19:12:00,52.8,35.6,29.70,NW,326,4.0,4.0,52,0.00,BKN,SKC,0.36,14.0,WeatherDisplay:10.37,2015-04-21 23:12:00,
2015-04-21 19:17:00,52.5,35.4,29.70,NNW,329,1.2,1.2,52,0.00,BKN,SKC,0.36,12.0,WeatherDisplay:10.37,2015-04-21 23:17:00,
2015-04-21 19:22:00,52.3,35.2,29.71,NW,318,0.0,0.0,52,0.00,BKN,SKC,0.36,9.0,WeatherDisplay:10.37,2015-04-21 23:22:00,
2015-04-21 19:27:00,52.1,35.5,29.71,WSW,257,3.5,0.0,53,0.00,BKN,SKC,0.36,7.0,WeatherDisplay:10.37,2015-04-21 23:27:00,
2015-04-21 19:32:00,51.9,36.2,29.71,West,263,0.0,0.0,55,0.00,BKN,SKC,0.36,0.0,WeatherDisplay:10.37,2015-04-21 23:32:00,
2015-04-21 19:37:00,51.7,36.9,29.71,West,263,0.0,0.0,57,0.00,CLR,SKC,0.36,0.0,WeatherDisplay:10.37,2015-04-21 23:37:00,
2015-04-21 19:42:00,51.3,37.4,29.71,West,263,0.0,0.0,59,0.00,CLR,SKC,0.36,0.0,WeatherDisplay:10.37,2015-04-21 23:42:00,
2015-04-21 19:47:00,50.9,37.5,29.71,West,263,0.0,0.0,60,0.00,CLR,SKC,0.36,0.0,WeatherDisplay:10.37,2015-04-21 23:47:00,
2015-04-21 19:52:00,50.4,37.4,29.71,NW,321,0.0,0.0,61,0.00,CLR,SKC,0.36,0.0,WeatherDisplay:10.37,2015-04-21 23:52:00,
2015-04-21 19:57:00,49.8,37.3,29.72,NW,321,0.0,0.0,62,0.00,CLR,SKC,0.36,0.0,WeatherDisplay:10.37,2015-04-21 23:57:00,